Time;durP1;ratioP1;P1;durP2;ratioP2;P2;SDS_P1;SDS_P2;PMS_P1;PMS_P2;Temp;Humidity;BMP_temperature;BMP_pressure;BME280_temperature;BME280_humidity;BME280_pressure;Samples;Min_cycle;Max_cycle;Signal;HPM_P1;HPM_P2
2020/12/03 00:01:53;;;;;;;;;;;3.40;99.90;;;;;;4984158;28;20233;-79
2020/12/03 00:04:19;;;;;;;;;;;3.40;99.90;;;;;;4988752;28;19937;-77
2020/12/03 00:06:48;;;;;;;;;;;3.40;99.90;;;;;;4985094;28;19921;-80
2020/12/03 00:09:16;;;;;;;;;;;3.50;99.90;;;;;;4983113;28;19943;-79
2020/12/03 00:11:43;;;;;;;;;;;3.50;99.90;;;;;;4987688;28;19917;-77
2020/12/03 00:14:10;;;;;;;;;;;3.50;99.90;;;;;;4989463;28;19922;-80
2020/12/03 00:16:35;;;;;;;;;;;3.50;99.90;;;;;;4984974;28;19922;-78
2020/12/03 00:19:02;;;;;;;;;;;3.50;99.90;;;;;;4988689;28;19914;-79
2020/12/03 00:21:31;;;;;;;;;;;3.60;99.90;;;;;;4986996;28;19914;-76
2020/12/03 00:23:56;;;;;;;;;;;3.60;99.90;;;;;;4986289;28;19926;-78
2020/12/03 00:26:24;;;;;;;;;;;3.70;99.90;;;;;;4987107;28;20374;-80
2020/12/03 00:28:50;;;;;;;;;;;3.80;99.90;;;;;;4982211;28;19909;-79
2020/12/03 00:31:16;;;;;;;;;;;3.80;99.90;;;;;;4988050;28;19914;-80
2020/12/03 00:33:41;;;;;;;;;;;3.80;99.90;;;;;;4987946;28;19918;-78
2020/12/03 00:36:07;;;;;;;;;;;4.00;99.90;;;;;;4983972;28;20299;-80
2020/12/03 00:38:32;;;;;;;;;;;4.10;99.90;;;;;;4988457;28;20008;-78
2020/12/03 00:40:58;;;;;;;;;;;4.10;99.90;;;;;;4987545;28;19914;-78
2020/12/03 00:43:23;;;;;;;;;;;4.10;99.90;;;;;;4988186;28;19917;-79
2020/12/03 00:45:49;;;;;;;;;;;4.20;99.90;;;;;;4986452;28;20279;-78
2020/12/03 00:48:16;;;;;;;;;;;4.20;99.90;;;;;;4988667;28;19910;-80
2020/12/03 00:50:41;;;;;;;;;;;4.20;99.90;;;;;;4990912;28;19921;-77
2020/12/03 00:53:07;;;;;;;;;;;4.30;99.90;;;;;;4987934;28;20355;-78
2020/12/03 00:55:32;;;;;;;;;;;4.30;99.90;;;;;;4988027;28;19926;-78
2020/12/03 00:57:58;;;;;;;;;;;4.40;99.90;;;;;;4988505;28;19913;-78
2020/12/03 01:00:24;;;;;;;;;;;4.40;99.90;;;;;;4985751;28;19914;-79
2020/12/03 01:02:50;;;;;;;;;;;4.40;99.90;;;;;;4988651;28;19910;-80
2020/12/03 01:05:16;;;;;;;;;;;4.40;99.90;;;;;;4990287;28;19987;-78
2020/12/03 01:07:42;;;;;;;;;;;4.50;99.90;;;;;;4988115;28;19921;-77
2020/12/03 01:10:11;;;;;;;;;;;4.50;99.90;;;;;;4991774;28;19910;-78
2020/12/03 01:12:37;;;;;;;;;;;4.50;99.90;;;;;;4988712;28;19921;-78
2020/12/03 01:15:03;;;;;;;;;;;4.50;99.90;;;;;;4991202;28;19922;-78
2020/12/03 01:17:29;;;;;;;;;;;4.60;99.90;;;;;;4988451;28;19913;-77
2020/12/03 01:19:54;;;;;;;;;;;4.50;99.90;;;;;;4988604;28;21354;-83
2020/12/03 01:22:20;;;;;;;;;;;4.60;99.90;;;;;;4989943;28;19918;-80
2020/12/03 01:24:46;;;;;;;;;;;4.60;99.90;;;;;;4989081;28;20013;-77
2020/12/03 01:27:11;;;;;;;;;;;4.60;99.90;;;;;;4991652;28;20289;-78
2020/12/03 01:29:38;;;;;;;;;;;4.60;99.90;;;;;;4990474;28;19936;-79
2020/12/03 01:32:04;;;;;;;;;;;4.60;99.90;;;;;;4989080;28;19980;-78
2020/12/03 01:34:29;;;;;;;;;;;4.60;99.90;;;;;;4991585;28;20328;-78
2020/12/03 01:36:55;;;;;;;;;;;4.60;99.90;;;;;;4986108;28;19979;-79
2020/12/03 01:39:21;;;;;;;;;;;4.60;99.90;;;;;;4989541;28;19968;-77
2020/12/03 01:41:47;;;;;;;;;;;4.60;99.90;;;;;;4983115;28;20012;-78
2020/12/03 01:44:13;;;;;;;;;;;4.60;99.90;;;;;;4985987;28;19914;-79
2020/12/03 01:46:39;;;;;;;;;;;4.60;99.90;;;;;;4987811;28;19914;-78
2020/12/03 01:49:13;;;;;;;;;;;4.60;99.90;;;;;;4991145;28;19914;-78
2020/12/03 01:51:40;;;;;;;;;;;4.60;99.90;;;;;;4988498;28;19914;-79
2020/12/03 01:54:08;;;;;;;;;;;4.50;99.90;;;;;;4990601;28;19959;-79
2020/12/03 01:56:33;;;;;;;;;;;4.50;99.90;;;;;;4989897;28;20263;-79
2020/12/03 01:59:00;;;;;;;;;;;4.40;99.90;;;;;;4990117;28;19992;-78
2020/12/03 02:01:25;;;;;;;;;;;4.40;99.90;;;;;;4988080;28;19992;-78
2020/12/03 02:03:51;;;;;;;;;;;4.30;99.90;;;;;;4990603;28;19925;-79
2020/12/03 02:06:24;;;;;;;;;;;4.20;99.90;;;;;;4990120;28;20004;-78
2020/12/03 02:08:50;;;;;;;;;;;4.20;99.90;;;;;;4990780;28;19910;-78
2020/12/03 02:11:16;;;;;;;;;;;4.10;99.90;;;;;;4990571;28;19910;-79
2020/12/03 02:13:49;;;;;;;;;;;4.10;99.90;;;;;;4990354;28;19921;-77
2020/12/03 02:16:15;;;;;;;;;;;4.10;99.90;;;;;;4988519;28;20290;-78
2020/12/03 02:18:43;;;;;;;;;;;4.20;99.90;;;;;;4990899;28;19917;-78
2020/12/03 02:21:08;;;;;;;;;;;4.30;99.90;;;;;;4989107;28;19909;-79
2020/12/03 02:23:34;;;;;;;;;;;4.40;99.90;;;;;;4989961;28;19944;-79
2020/12/03 02:25:59;;;;;;;;;;;4.50;99.90;;;;;;4988040;28;19914;-79
2020/12/03 02:28:25;;;;;;;;;;;4.60;99.90;;;;;;4988008;28;19910;-78
2020/12/03 02:30:51;;;;;;;;;;;4.60;99.90;;;;;;4990392;28;19921;-79
2020/12/03 02:33:16;;;;;;;;;;;4.70;99.90;;;;;;4989178;28;19914;-80
2020/12/03 02:35:42;;;;;;;;;;;4.70;99.90;;;;;;4988244;28;19933;-79
2020/12/03 02:38:07;;;;;;;;;;;4.60;99.90;;;;;;4986595;28;20001;-78
2020/12/03 02:40:33;;;;;;;;;;;4.70;99.90;;;;;;4990767;28;19921;-79
2020/12/03 02:42:58;;;;;;;;;;;4.70;99.90;;;;;;4990200;28;19920;-79
2020/12/03 02:45:24;;;;;;;;;;;4.70;99.90;;;;;;4990033;28;19963;-79
2020/12/03 02:47:49;;;;;;;;;;;4.70;99.90;;;;;;4989377;28;19910;-79
2020/12/03 02:50:15;;;;;;;;;;;4.80;99.90;;;;;;4985789;28;19941;-79
2020/12/03 02:52:40;;;;;;;;;;;4.90;99.90;;;;;;4990281;28;19921;-79
2020/12/03 02:55:06;;;;;;;;;;;4.90;99.90;;;;;;4989558;28;19929;-78
2020/12/03 02:57:32;;;;;;;;;;;4.80;99.90;;;;;;4990277;28;20477;-78
2020/12/03 02:59:57;;;;;;;;;;;4.80;99.90;;;;;;4989823;28;19960;-80
2020/12/03 03:02:23;;;;;;;;;;;4.70;99.90;;;;;;4985584;28;19993;-79
2020/12/03 03:04:48;;;;;;;;;;;4.50;99.90;;;;;;4989924;28;19914;-78
2020/12/03 03:07:14;;;;;;;;;;;4.30;99.90;;;;;;4990373;28;19910;-78
2020/12/03 03:09:40;;;;;;;;;;;4.20;99.90;;;;;;4989408;28;20001;-78
2020/12/03 03:12:05;;;;;;;;;;;4.10;99.90;;;;;;4989274;28;19914;-80
2020/12/03 03:14:31;;;;;;;;;;;4.00;99.90;;;;;;4989158;28;19918;-78
2020/12/03 03:16:56;;;;;;;;;;;4.00;99.90;;;;;;4983870;28;20382;-78
2020/12/03 03:19:22;;;;;;;;;;;4.00;99.90;;;;;;4980454;28;19915;-78
2020/12/03 03:21:48;;;;;;;;;;;4.00;99.90;;;;;;4984492;28;19917;-79
2020/12/03 03:24:14;;;;;;;;;;;4.00;99.90;;;;;;4984870;28;19921;-78
2020/12/03 03:26:40;;;;;;;;;;;4.00;99.90;;;;;;4986694;28;19925;-78
2020/12/03 03:29:05;;;;;;;;;;;3.90;99.90;;;;;;4985432;28;19910;-78
2020/12/03 03:31:31;;;;;;;;;;;4.00;99.90;;;;;;4984043;28;19921;-79
2020/12/03 03:33:57;;;;;;;;;;;4.00;99.90;;;;;;4987879;28;19916;-79
2020/12/03 03:36:22;;;;;;;;;;;4.00;99.90;;;;;;4988221;28;19975;-79
2020/12/03 03:38:48;;;;;;;;;;;4.00;99.90;;;;;;4989044;28;19920;-79
2020/12/03 03:41:13;;;;;;;;;;;4.00;99.90;;;;;;4989054;28;19922;-79
2020/12/03 03:43:39;;;;;;;;;;;4.00;99.90;;;;;;4988396;28;19918;-77
2020/12/03 03:46:05;;;;;;;;;;;4.00;99.90;;;;;;4985810;28;20531;-79
2020/12/03 03:48:31;;;;;;;;;;;4.00;99.90;;;;;;4989156;28;19914;-79
2020/12/03 03:50:57;;;;;;;;;;;4.10;99.90;;;;;;4986587;28;19920;-79
2020/12/03 03:53:23;;;;;;;;;;;4.00;99.90;;;;;;4986751;28;20578;-79
2020/12/03 03:55:49;;;;;;;;;;;4.10;99.90;;;;;;4988578;28;19978;-79
2020/12/03 03:58:15;;;;;;;;;;;4.10;99.90;;;;;;4989461;28;19910;-79
2020/12/03 04:00:43;;;;;;;;;;;4.10;99.90;;;;;;4982058;28;20374;-78
2020/12/03 04:03:13;;;;;;;;;;;4.10;99.90;;;;;;4984239;28;19917;-79
2020/12/03 04:05:39;;;;;;;;;;;4.20;99.90;;;;;;4989443;28;19910;-79
2020/12/03 04:08:05;;;;;;;;;;;4.20;99.90;;;;;;4984744;28;19914;-79
2020/12/03 04:10:30;;;;;;;;;;;4.20;99.90;;;;;;4988334;28;19917;-77
2020/12/03 04:12:56;;;;;;;;;;;4.20;99.90;;;;;;4983347;28;19925;-78
2020/12/03 04:15:21;;;;;;;;;;;4.20;99.90;;;;;;4986912;28;19918;-79
2020/12/03 04:17:47;;;;;;;;;;;4.20;99.90;;;;;;4986599;28;20011;-78
2020/12/03 04:20:14;;;;;;;;;;;4.20;99.90;;;;;;4987367;28;19928;-79
2020/12/03 04:22:39;;;;;;;;;;;4.20;99.90;;;;;;4979580;28;19941;-79
2020/12/03 04:25:05;;;;;;;;;;;4.20;99.90;;;;;;4977467;28;20322;-79
2020/12/03 04:27:31;;;;;;;;;;;4.20;99.90;;;;;;4981666;28;20281;-79
2020/12/03 04:29:56;;;;;;;;;;;4.20;99.90;;;;;;4987896;28;19913;-79
2020/12/03 04:32:22;;;;;;;;;;;4.20;99.90;;;;;;4987831;28;20370;-77
2020/12/03 04:34:47;;;;;;;;;;;4.20;99.90;;;;;;4984776;28;19975;-78
2020/12/03 04:37:13;;;;;;;;;;;4.20;99.90;;;;;;4986921;28;19924;-79
2020/12/03 04:39:38;;;;;;;;;;;4.30;99.90;;;;;;4987172;28;20360;-79
2020/12/03 04:42:12;;;;;;;;;;;4.20;99.90;;;;;;4977434;28;20454;-79
2020/12/03 04:44:39;;;;;;;;;;;4.20;99.90;;;;;;4983490;28;19964;-78
2020/12/03 04:47:13;;;;;;;;;;;4.30;99.90;;;;;;4983976;28;19921;-79
2020/12/03 04:49:50;;;;;;;;;;;4.30;99.90;;;;;;4979975;28;19942;-79
2020/12/03 04:52:35;;;;;;;;;;;4.30;99.90;;;;;;4982739;28;19914;-78
2020/12/03 04:55:19;;;;;;;;;;;4.30;99.90;;;;;;4985606;28;19973;-78
2020/12/03 04:57:49;;;;;;;;;;;4.30;99.90;;;;;;4986997;28;19925;-79
2020/12/03 05:00:23;;;;;;;;;;;4.30;99.90;;;;;;4981699;28;19921;-78
2020/12/03 05:03:09;;;;;;;;;;;4.40;99.90;;;;;;4979202;28;19915;-79
2020/12/03 05:05:53;;;;;;;;;;;4.30;99.90;;;;;;4983609;28;20495;-79
2020/12/03 05:08:42;;;;;;;;;;;4.40;99.90;;;;;;4981221;28;20374;-78
2020/12/03 05:11:16;;;;;;;;;;;4.30;99.90;;;;;;4980544;28;19914;-78
2020/12/03 05:13:47;;;;;;;;;;;4.30;99.90;;;;;;4984929;28;19918;-79
2020/12/03 05:16:15;;;;;;;;;;;4.30;99.90;;;;;;4982387;28;19941;-79
2020/12/03 05:18:52;;;;;;;;;;;4.30;99.90;;;;;;4986801;28;19910;-78
2020/12/03 05:21:20;;;;;;;;;;;4.30;99.90;;;;;;4986446;28;19921;-76
2020/12/03 05:23:45;;;;;;;;;;;4.30;99.90;;;;;;4986834;28;20389;-78
2020/12/03 05:26:14;;;;;;;;;;;4.30;99.90;;;;;;4983390;28;19914;-79
2020/12/03 05:29:06;;;;;;;;;;;4.30;99.90;;;;;;4986164;28;20443;-79
2020/12/03 05:31:42;;;;;;;;;;;4.30;99.90;;;;;;4984764;28;19921;-78
2020/12/03 05:34:11;;;;;;;;;;;4.30;99.90;;;;;;4985613;28;20386;-78
2020/12/03 05:36:38;;;;;;;;;;;4.20;99.90;;;;;;4980201;28;19921;-79
2020/12/03 05:39:06;;;;;;;;;;;4.30;99.90;;;;;;4979631;28;19945;-79
2020/12/03 05:41:34;;;;;;;;;;;4.20;99.90;;;;;;4981437;28;20447;-77
2020/12/03 05:44:04;;;;;;;;;;;4.30;99.90;;;;;;4981483;28;19967;-79
2020/12/03 05:46:30;;;;;;;;;;;4.30;99.90;;;;;;4980237;28;19914;-78
2020/12/03 05:48:58;;;;;;;;;;;4.30;99.90;;;;;;4983769;28;19910;-78
2020/12/03 05:51:26;;;;;;;;;;;4.30;99.90;;;;;;4989350;28;20361;-79
2020/12/03 05:53:52;;;;;;;;;;;4.30;99.90;;;;;;4989395;28;20366;-78
2020/12/03 05:56:20;;;;;;;;;;;4.30;99.90;;;;;;4983159;28;20290;-79
2020/12/03 05:58:46;;;;;;;;;;;4.30;99.90;;;;;;4983969;28;19910;-79
2020/12/03 06:01:15;;;;;;;;;;;4.30;99.90;;;;;;4982697;28;20278;-79
2020/12/03 06:04:02;;;;;;;;;;;4.30;99.90;;;;;;4986134;28;20000;-79
2020/12/03 06:06:46;;;;;;;;;;;4.30;99.90;;;;;;4987169;28;20283;-78
2020/12/03 06:09:21;;;;;;;;;;;4.20;99.90;;;;;;4986575;28;19915;-79
2020/12/03 06:11:46;;;;;;;;;;;4.20;99.90;;;;;;4985692;28;19914;-77
2020/12/03 06:14:24;;;;;;;;;;;4.20;99.90;;;;;;4987078;28;19972;-79
2020/12/03 06:16:58;;;;;;;;;;;4.20;99.90;;;;;;4987862;28;19999;-78
2020/12/03 06:19:42;;;;;;;;;;;4.20;99.90;;;;;;4987340;28;20569;-80
2020/12/03 06:22:13;;;;;;;;;;;4.10;99.90;;;;;;4977226;28;19928;-78
2020/12/03 06:25:01;;;;;;;;;;;4.20;99.90;;;;;;4983776;28;19929;-79
2020/12/03 06:27:30;;;;;;;;;;;4.20;99.90;;;;;;4980712;28;19910;-79
2020/12/03 06:29:55;;;;;;;;;;;4.10;99.90;;;;;;4989964;28;19917;-80
2020/12/03 06:32:30;;;;;;;;;;;4.10;99.90;;;;;;4987042;28;19918;-80
2020/12/03 06:35:14;;;;;;;;;;;4.20;99.90;;;;;;4989249;28;20434;-79
2020/12/03 06:37:44;;;;;;;;;;;4.10;99.90;;;;;;4980996;28;19910;-80
2020/12/03 06:40:14;;;;;;;;;;;4.10;99.90;;;;;;4984758;28;19922;-80
2020/12/03 06:43:08;;;;;;;;;;;4.10;99.90;;;;;;4987413;28;20403;-80
2020/12/03 06:45:55;;;;;;;;;;;4.00;99.90;;;;;;4975460;28;19937;-79
2020/12/03 06:48:20;;;;;;;;;;;4.10;99.90;;;;;;4984659;28;19910;-78
2020/12/03 06:51:04;;;;;;;;;;;4.00;99.90;;;;;;4983865;28;19920;-79
2020/12/03 06:53:48;;;;;;;;;;;4.00;99.90;;;;;;4980306;28;20016;-78
2020/12/03 06:56:23;;;;;;;;;;;4.10;99.90;;;;;;4984914;28;19944;-79
2020/12/03 06:59:12;;;;;;;;;;;4.10;99.90;;;;;;4985526;28;19914;-79
2020/12/03 07:01:49;;;;;;;;;;;4.10;99.90;;;;;;4963501;28;19933;-77
2020/12/03 07:04:15;;;;;;;;;;;4.10;99.90;;;;;;4985304;28;19920;-79
2020/12/03 07:06:46;;;;;;;;;;;4.10;99.90;;;;;;4986047;28;19914;-79
2020/12/03 07:09:12;;;;;;;;;;;4.20;99.90;;;;;;4987147;28;19956;-80
2020/12/03 07:11:56;;;;;;;;;;;4.20;99.90;;;;;;4985206;28;19914;-80
2020/12/03 07:14:22;;;;;;;;;;;4.20;99.90;;;;;;4989645;28;19917;-78
2020/12/03 07:16:47;;;;;;;;;;;4.20;99.90;;;;;;4985876;28;20363;-79
2020/12/03 07:19:13;;;;;;;;;;;4.20;99.90;;;;;;4989204;28;20008;-78
2020/12/03 07:21:44;;;;;;;;;;;4.20;99.90;;;;;;4988621;28;19913;-80
2020/12/03 07:24:29;;;;;;;;;;;4.30;99.90;;;;;;4989133;28;19922;-79
2020/12/03 07:27:04;;;;;;;;;;;4.40;99.90;;;;;;4981507;28;19914;-78
2020/12/03 07:29:45;;;;;;;;;;;4.40;99.90;;;;;;4989505;28;19940;-79
2020/12/03 07:32:31;;;;;;;;;;;4.40;99.90;;;;;;4987277;28;19943;-78
2020/12/03 07:35:02;;;;;;;;;;;4.40;99.90;;;;;;4965210;28;19963;-79
2020/12/03 07:37:40;;;;;;;;;;;4.50;99.90;;;;;;4986532;28;19975;-79
2020/12/03 07:40:06;;;;;;;;;;;4.50;99.90;;;;;;4985725;28;19914;-78
2020/12/03 07:42:32;;;;;;;;;;;4.60;99.90;;;;;;4980842;28;19914;-77
2020/12/03 07:44:57;;;;;;;;;;;4.60;99.90;;;;;;4983041;28;19914;-79
2020/12/03 07:47:23;;;;;;;;;;;4.60;99.90;;;;;;4982153;28;20363;-78
2020/12/03 07:49:50;;;;;;;;;;;4.60;99.90;;;;;;4982428;28;19917;-78
2020/12/03 07:52:21;;;;;;;;;;;4.50;99.90;;;;;;4982380;28;19914;-75
2020/12/03 07:54:46;;;;;;;;;;;4.60;99.90;;;;;;4980905;28;19926;-78
2020/12/03 07:57:44;;;;;;;;;;;4.50;99.90;;;;;;4985630;28;19987;-78
2020/12/03 08:00:42;;;;;;;;;;;4.50;99.90;;;;;;4986913;28;20009;-79
2020/12/03 08:03:09;;;;;;;;;;;4.60;99.90;;;;;;5016505;28;19963;-79
2020/12/03 08:05:34;;;;;;;;;;;4.60;99.90;;;;;;4980704;28;19954;-79
2020/12/03 08:08:00;;;;;;;;;;;4.50;99.90;;;;;;4977824;28;19961;-79
2020/12/03 08:10:39;;;;;;;;;;;4.60;99.90;;;;;;4988346;28;19914;-77
2020/12/03 08:13:16;;;;;;;;;;;4.60;99.90;;;;;;4981625;28;19914;-78
2020/12/03 08:15:42;;;;;;;;;;;4.60;99.90;;;;;;4986874;28;19922;-78
2020/12/03 08:18:28;;;;;;;;;;;4.60;99.90;;;;;;4986453;28;20036;-78
2020/12/03 08:20:56;;;;;;;;;;;4.60;99.90;;;;;;4977101;28;19997;-79
2020/12/03 08:23:21;;;;;;;;;;;4.60;99.90;;;;;;4988185;28;19991;-79
2020/12/03 08:25:47;;;;;;;;;;;4.60;99.90;;;;;;4988553;28;20338;-78
2020/12/03 08:28:17;;;;;;;;;;;4.70;99.90;;;;;;4982305;28;20000;-79
2020/12/03 08:30:50;;;;;;;;;;;4.70;99.90;;;;;;4987891;28;19963;-79
2020/12/03 08:33:18;;;;;;;;;;;4.70;99.90;;;;;;4988005;28;19929;-78
2020/12/03 08:35:49;;;;;;;;;;;4.60;99.90;;;;;;4987577;28;19926;-79
2020/12/03 08:38:18;;;;;;;;;;;4.60;99.90;;;;;;4982098;28;20373;-78
2020/12/03 08:40:45;;;;;;;;;;;4.70;99.90;;;;;;4980326;28;19964;-78
2020/12/03 08:43:11;;;;;;;;;;;4.70;99.90;;;;;;4983562;28;19922;-78
2020/12/03 08:45:47;;;;;;;;;;;4.80;99.90;;;;;;4981711;28;19910;-77
2020/12/03 08:48:15;;;;;;;;;;;4.80;99.90;;;;;;4984120;28;20039;-76
2020/12/03 08:50:40;;;;;;;;;;;4.80;99.90;;;;;;4984693;28;19917;-78
2020/12/03 08:53:07;;;;;;;;;;;4.80;99.90;;;;;;4987072;28;20306;-80
2020/12/03 08:55:36;;;;;;;;;;;4.80;99.90;;;;;;4977324;28;20305;-77
2020/12/03 08:58:02;;;;;;;;;;;4.90;99.90;;;;;;4983274;28;19983;-77
2020/12/03 09:00:28;;;;;;;;;;;4.90;99.90;;;;;;4981745;28;20383;-78
2020/12/03 09:02:54;;;;;;;;;;;4.80;99.90;;;;;;4983507;28;19914;-77
2020/12/03 09:05:20;;;;;;;;;;;4.90;99.90;;;;;;4986456;28;20159;-76
2020/12/03 09:07:47;;;;;;;;;;;4.90;99.90;;;;;;4982436;28;19921;-77
2020/12/03 09:10:13;;;;;;;;;;;4.80;99.90;;;;;;4985228;28;20016;-77
2020/12/03 09:12:40;;;;;;;;;;;4.90;99.90;;;;;;4986683;28;20025;-77
2020/12/03 09:15:06;;;;;;;;;;;4.80;99.90;;;;;;4987260;28;19918;-77
2020/12/03 09:17:33;;;;;;;;;;;4.80;99.90;;;;;;4986645;28;19914;-75
2020/12/03 09:20:03;;;;;;;;;;;4.80;99.90;;;;;;4983046;28;19917;-76
2020/12/03 09:22:29;;;;;;;;;;;4.80;99.90;;;;;;4983211;28;19918;-77
2020/12/03 09:24:57;;;;;;;;;;;4.80;99.90;;;;;;4987826;28;19922;-77
2020/12/03 09:27:23;;;;;;;;;;;4.80;99.90;;;;;;4983954;28;19914;-77
2020/12/03 09:29:49;;;;;;;;;;;4.80;99.90;;;;;;4990766;28;19914;-77
2020/12/03 09:32:16;;;;;;;;;;;4.70;99.90;;;;;;4988379;28;19915;-77
2020/12/03 09:34:43;;;;;;;;;;;4.70;99.90;;;;;;4990779;28;19918;-76
2020/12/03 09:37:09;;;;;;;;;;;4.80;99.90;;;;;;4991189;28;19949;-77
2020/12/03 09:39:35;;;;;;;;;;;4.80;99.90;;;;;;4990747;28;20363;-76
2020/12/03 09:42:04;;;;;;;;;;;4.90;99.90;;;;;;4990725;28;19910;-76
2020/12/03 09:44:36;;;;;;;;;;;4.90;99.90;;;;;;4988120;28;19915;-76
2020/12/03 09:47:05;;;;;;;;;;;5.00;99.90;;;;;;4989879;28;19917;-78
2020/12/03 09:49:32;;;;;;;;;;;5.10;99.90;;;;;;4988295;28;20365;-77
2020/12/03 09:52:01;;;;;;;;;;;5.10;99.90;;;;;;4982189;28;20541;-76
2020/12/03 09:54:27;;;;;;;;;;;5.10;99.90;;;;;;4989396;28;19909;-77
2020/12/03 09:56:52;;;;;;;;;;;5.00;99.90;;;;;;4985116;28;19990;-76
2020/12/03 09:59:19;;;;;;;;;;;5.00;99.90;;;;;;4986339;28;19936;-76
2020/12/03 10:02:08;;;;;;;;;;;5.00;99.90;;;;;;4987663;28;20000;-77
2020/12/03 10:04:34;;;;;;;;;;;5.00;99.90;;;;;;4960131;28;19918;-77
2020/12/03 10:07:09;;;;;;;;;;;5.00;99.90;;;;;;4983506;28;20343;-77
2020/12/03 10:09:48;;;;;;;;;;;5.00;99.90;;;;;;4987352;28;19914;-78
2020/12/03 10:12:17;;;;;;;;;;;5.00;99.90;;;;;;4982652;28;19913;-77
2020/12/03 10:15:01;;;;;;;;;;;5.00;99.90;;;;;;4985846;28;19961;-78
2020/12/03 10:17:32;;;;;;;;;;;5.10;99.90;;;;;;4987463;28;19921;-77
2020/12/03 10:20:00;;;;;;;;;;;5.00;99.90;;;;;;4984520;28;19952;-77
2020/12/03 10:22:26;;;;;;;;;;;5.10;99.90;;;;;;4985909;28;19918;-77
2020/12/03 10:24:54;;;;;;;;;;;5.20;99.90;;;;;;4986514;28;20110;-77
2020/12/03 10:27:46;;;;;;;;;;;5.20;99.90;;;;;;4983700;28;19949;-77
2020/12/03 10:30:19;;;;;;;;;;;5.40;99.90;;;;;;4985485;28;20375;-78
2020/12/03 10:32:46;;;;;;;;;;;5.50;99.90;;;;;;4989346;28;20012;-77
2020/12/03 10:35:13;;;;;;;;;;;5.50;99.90;;;;;;4984603;28;19954;-77
2020/12/03 10:37:52;;;;;;;;;;;5.50;99.90;;;;;;4988589;28;19930;-78
2020/12/03 10:40:19;;;;;;;;;;;5.50;99.90;;;;;;4987333;28;19918;-76
2020/12/03 10:43:03;;;;;;;;;;;5.50;99.90;;;;;;4990263;28;19914;-80
2020/12/03 10:45:35;;;;;;;;;;;5.60;99.90;;;;;;4984291;28;19918;-77
2020/12/03 10:48:07;;;;;;;;;;;5.50;99.90;;;;;;4984603;28;19913;-76
2020/12/03 10:50:51;;;;;;;;;;;5.50;99.90;;;;;;4978443;28;19921;-76
2020/12/03 10:53:20;;;;;;;;;;;5.50;99.90;;;;;;4980864;28;19913;-79
2020/12/03 10:55:48;;;;;;;;;;;5.50;99.90;;;;;;4984103;28;19971;-75
2020/12/03 10:58:16;;;;;;;;;;;5.40;99.90;;;;;;4983393;28;19920;-79
2020/12/03 11:00:42;;;;;;;;;;;5.50;99.90;;;;;;4989746;28;19914;-76
2020/12/03 11:03:13;;;;;;;;;;;5.50;99.90;;;;;;4993445;28;20318;-77
2020/12/03 11:05:45;;;;;;;;;;;5.70;99.90;;;;;;4987223;28;19925;-76
2020/12/03 11:08:10;;;;;;;;;;;5.80;99.90;;;;;;4983210;28;19914;-77
2020/12/03 11:10:36;;;;;;;;;;;5.90;99.90;;;;;;4982280;28;19955;-76
2020/12/03 11:13:02;;;;;;;;;;;5.90;99.90;;;;;;4982857;28;19910;-76
2020/12/03 11:15:28;;;;;;;;;;;5.90;99.90;;;;;;4986424;28;19980;-77
2020/12/03 11:18:03;;;;;;;;;;;6.00;99.90;;;;;;4986734;28;19914;-76
2020/12/03 11:20:36;;;;;;;;;;;6.10;99.90;;;;;;4986512;28;19917;-77
2020/12/03 11:23:03;;;;;;;;;;;6.10;99.90;;;;;;4987614;28;19922;-77
2020/12/03 11:25:29;;;;;;;;;;;6.20;99.90;;;;;;4988391;28;19925;-76
2020/12/03 11:27:55;;;;;;;;;;;6.30;99.90;;;;;;4981525;28;19913;-76
2020/12/03 11:30:26;;;;;;;;;;;6.30;99.90;;;;;;4988549;28;20034;-76
2020/12/03 11:32:53;;;;;;;;;;;6.20;99.90;;;;;;4986611;28;19951;-77
2020/12/03 11:35:22;;;;;;;;;;;6.10;99.90;;;;;;4983198;28;19928;-76
2020/12/03 11:37:50;;;;;;;;;;;5.90;99.90;;;;;;4988142;28;19914;-77
2020/12/03 11:40:21;;;;;;;;;;;5.90;99.90;;;;;;4980790;28;19909;-78
2020/12/03 11:48:29;;;;;;;;;;;5.70;99.90;;;;;;4980299;28;19979;-77
2020/12/03 11:50:55;;;;;;;;;;;5.70;99.90;;;;;;4985802;28;20000;-78
2020/12/03 11:53:25;;;;;;;;;;;5.60;99.90;;;;;;4985173;28;20015;-80
2020/12/03 11:55:50;;;;;;;;;;;5.60;99.90;;;;;;4985282;28;19922;-78
2020/12/03 11:58:16;;;;;;;;;;;5.60;99.90;;;;;;4985057;28;19921;-79
2020/12/03 12:00:43;;;;;;;;;;;5.60;99.90;;;;;;4984692;28;19921;-79
2020/12/03 12:03:09;;;;;;;;;;;5.70;99.90;;;;;;4984124;28;19940;-79
2020/12/03 12:08:22;;;;;;;;;;;5.70;99.90;;;;;;4983564;28;20414;-79
2020/12/03 12:13:25;;;;;;;;;;;5.80;99.90;;;;;;4982743;28;19910;-78
2020/12/03 12:15:51;;;;;;;;;;;5.90;99.90;;;;;;4985802;28;19929;-79
2020/12/03 12:18:16;;;;;;;;;;;5.90;99.90;;;;;;4987676;28;19953;-77
2020/12/03 12:20:42;;;;;;;;;;;5.90;99.90;;;;;;4985065;28;19914;-78
2020/12/03 12:23:08;;;;;;;;;;;6.00;99.90;;;;;;4979212;28;19929;-79
2020/12/03 12:25:33;;;;;;;;;;;5.90;99.90;;;;;;4977927;28;19922;-79
2020/12/03 12:28:00;;;;;;;;;;;5.90;99.90;;;;;;4982655;28;21367;-80
2020/12/03 12:30:26;;;;;;;;;;;5.90;99.90;;;;;;4987999;28;19910;-79
2020/12/03 12:32:52;;;;;;;;;;;5.90;99.90;;;;;;4987339;28;20004;-79
2020/12/03 12:35:18;;;;;;;;;;;5.90;99.90;;;;;;4982796;28;19918;-80
2020/12/03 12:37:43;;;;;;;;;;;5.90;99.90;;;;;;4987145;28;19971;-79
2020/12/03 12:40:09;;;;;;;;;;;6.00;99.90;;;;;;4982326;28;19918;-78
2020/12/03 12:42:35;;;;;;;;;;;6.00;99.90;;;;;;4985607;28;20282;-79
2020/12/03 12:45:00;;;;;;;;;;;6.10;99.90;;;;;;4980501;28;19998;-79
2020/12/03 12:47:26;;;;;;;;;;;6.10;99.90;;;;;;4986290;28;19914;-79
2020/12/03 12:49:52;;;;;;;;;;;6.20;99.90;;;;;;4985920;28;19914;-78
2020/12/03 12:52:18;;;;;;;;;;;6.20;99.90;;;;;;4984509;28;19914;-77
2020/12/03 12:54:44;;;;;;;;;;;6.20;99.90;;;;;;4983918;28;20390;-78
2020/12/03 12:57:09;;;;;;;;;;;6.20;99.90;;;;;;4979888;28;20021;-79
2020/12/03 12:59:35;;;;;;;;;;;6.20;99.90;;;;;;4984177;28;19962;-78
2020/12/03 13:02:01;;;;;;;;;;;6.30;99.90;;;;;;4987375;28;19914;-77
2020/12/03 13:04:26;;;;;;;;;;;6.30;99.90;;;;;;4986966;28;19918;-78
2020/12/03 13:06:54;;;;;;;;;;;6.30;99.90;;;;;;4985492;28;19933;-77
2020/12/03 13:09:20;;;;;;;;;;;6.40;99.90;;;;;;4990162;28;20320;-79
2020/12/03 13:11:46;;;;;;;;;;;6.30;99.90;;;;;;4990076;28;20017;-77
2020/12/03 13:14:12;;;;;;;;;;;6.40;99.90;;;;;;4986728;28;19914;-79
2020/12/03 13:16:38;;;;;;;;;;;6.40;99.90;;;;;;4987461;28;19940;-77
2020/12/03 13:19:05;;;;;;;;;;;6.50;99.90;;;;;;4984926;28;19918;-79
2020/12/03 13:21:31;;;;;;;;;;;6.70;99.90;;;;;;4990530;28;19914;-77
2020/12/03 13:23:57;;;;;;;;;;;6.70;99.90;;;;;;4986651;28;20281;-77
2020/12/03 13:26:23;;;;;;;;;;;6.70;99.90;;;;;;4987147;28;19945;-77
2020/12/03 13:28:49;;;;;;;;;;;6.70;99.90;;;;;;4987213;28;20362;-76
2020/12/03 13:31:14;;;;;;;;;;;6.80;99.90;;;;;;4990876;28;19914;-76
2020/12/03 13:33:41;;;;;;;;;;;6.80;99.90;;;;;;4986377;28;19997;-76
2020/12/03 13:36:06;;;;;;;;;;;6.80;99.90;;;;;;4988973;28;20409;-76
2020/12/03 13:38:32;;;;;;;;;;;6.80;99.90;;;;;;4988743;28;19925;-76
2020/12/03 13:40:57;;;;;;;;;;;6.90;99.90;;;;;;4989285;28;20504;-77
2020/12/03 13:43:23;;;;;;;;;;;6.80;99.90;;;;;;4984223;28;19918;-77
2020/12/03 13:45:49;;;;;;;;;;;6.80;99.90;;;;;;4986849;28;19920;-74
2020/12/03 13:48:15;;;;;;;;;;;6.70;99.90;;;;;;4985632;28;19910;-76
2020/12/03 13:50:41;;;;;;;;;;;6.60;99.90;;;;;;4982690;28;19929;-79
2020/12/03 13:53:07;;;;;;;;;;;6.50;99.90;;;;;;4988061;28;19914;-77
2020/12/03 13:55:32;;;;;;;;;;;6.50;99.90;;;;;;4986507;28;20047;-77
2020/12/03 13:57:59;;;;;;;;;;;6.50;99.90;;;;;;4988945;28;19990;-81
2020/12/03 14:00:25;;;;;;;;;;;6.40;99.90;;;;;;4983912;28;19910;-79
2020/12/03 14:02:50;;;;;;;;;;;6.40;99.90;;;;;;4990210;28;19914;-77
2020/12/03 14:05:16;;;;;;;;;;;6.40;99.90;;;;;;4987052;28;19937;-79
2020/12/03 14:07:42;;;;;;;;;;;6.40;99.90;;;;;;4984937;28;20501;-80
2020/12/03 14:10:08;;;;;;;;;;;6.40;99.90;;;;;;4983776;28;19962;-80
2020/12/03 14:12:33;;;;;;;;;;;6.40;99.90;;;;;;4985773;28;19910;-82
2020/12/03 14:14:59;;;;;;;;;;;6.40;99.90;;;;;;4980341;28;19994;-80
2020/12/03 14:17:24;;;;;;;;;;;6.40;99.90;;;;;;4986073;28;20285;-82
2020/12/03 14:19:50;;;;;;;;;;;6.30;99.90;;;;;;4986755;28;19914;-80
2020/12/03 14:22:15;;;;;;;;;;;6.20;99.90;;;;;;4989230;28;19971;-76
2020/12/03 14:24:41;;;;;;;;;;;6.20;99.90;;;;;;4988675;28;19926;-79
2020/12/03 14:27:07;;;;;;;;;;;6.20;99.90;;;;;;4986676;28;19909;-81
2020/12/03 14:29:33;;;;;;;;;;;6.20;99.90;;;;;;4988280;28;19925;-82
2020/12/03 14:31:59;;;;;;;;;;;6.20;99.90;;;;;;4987514;28;19953;-78
2020/12/03 14:34:24;;;;;;;;;;;6.20;99.90;;;;;;4989681;28;19921;-79
2020/12/03 14:36:50;;;;;;;;;;;6.20;99.90;;;;;;4989649;28;20252;-77
2020/12/03 14:39:15;;;;;;;;;;;6.20;99.90;;;;;;4981107;28;19982;-80
2020/12/03 14:41:42;;;;;;;;;;;6.20;99.90;;;;;;4983235;28;20389;-76
2020/12/03 14:44:08;;;;;;;;;;;6.20;99.90;;;;;;4985048;28;19953;-79
2020/12/03 14:46:34;;;;;;;;;;;6.20;99.90;;;;;;4981638;28;20428;-80
2020/12/03 14:49:00;;;;;;;;;;;6.10;99.90;;;;;;4984695;28;20015;-80
2020/12/03 14:51:28;;;;;;;;;;;6.10;99.90;;;;;;4985279;28;20315;-79